createdAt,value
2017-07-18T00:00:02.078Z,5.50
2017-07-18T00:02:31.312Z,6.00
2017-07-18T00:05:00.567Z,5.63
2017-07-18T00:07:31.888Z,5.80
2017-07-18T00:10:01.262Z,5.90
2017-07-18T00:12:30.429Z,5.20
2017-07-18T00:15:00.486Z,5.33
2017-07-18T00:17:30.171Z,5.27
2017-07-18T00:20:00.029Z,4.80
2017-07-18T00:22:29.536Z,5.30
2017-07-18T00:24:59.284Z,5.20
2017-07-18T00:27:28.751Z,5.30
2017-07-18T00:29:59.074Z,5.20
2017-07-18T00:32:30.256Z,5.47
2017-07-18T00:35:00.440Z,5.50
2017-07-18T00:37:35.171Z,5.10
2017-07-18T00:40:06.213Z,5.33
2017-07-18T00:42:35.440Z,4.80
2017-07-18T00:45:05.674Z,4.90
2017-07-18T00:47:35.146Z,5.03
2017-07-18T00:50:04.869Z,5.43
2017-07-18T00:52:35.548Z,5.13
2017-07-18T00:55:05.334Z,4.67
2017-07-18T00:57:34.789Z,5.20
2017-07-18T01:00:04.834Z,5.00
2017-07-18T01:02:34.536Z,5.77
2017-07-18T01:05:04.113Z,4.90
2017-07-18T01:07:35.870Z,5.13
2017-07-18T01:10:05.446Z,4.83
2017-07-18T01:12:36.328Z,5.20
2017-07-18T01:15:06.365Z,5.10
2017-07-18T01:17:36.506Z,5.13
2017-07-18T01:20:10.947Z,4.90
2017-07-18T01:22:50.921Z,4.97
2017-07-18T01:25:52.899Z,4.80
2017-07-18T01:28:27.655Z,4.20
2017-07-18T01:30:57.165Z,4.93
2017-07-18T01:33:26.589Z,4.80
2017-07-18T01:35:56.311Z,4.60
2017-07-18T01:38:26.288Z,4.37
2017-07-18T01:40:55.985Z,4.80
2017-07-18T01:43:26.856Z,4.50
2017-07-18T01:45:56.444Z,4.50
2017-07-18T01:48:26.032Z,4.10
2017-07-18T01:50:55.860Z,4.80
2017-07-18T01:53:26.366Z,4.50
2017-07-18T01:55:56.872Z,4.30
2017-07-18T01:58:27.024Z,4.60
2017-07-18T02:00:56.741Z,4.67
2017-07-18T02:03:28.247Z,4.40
2017-07-18T02:05:59.173Z,4.40
2017-07-18T02:08:32.396Z,4.37
2017-07-18T02:11:01.612Z,4.77
2017-07-18T02:13:31.559Z,4.50
2017-07-18T02:16:01.020Z,4.50
2017-07-18T02:18:30.666Z,5.10
2017-07-18T02:21:00.636Z,4.27
2017-07-18T02:23:29.645Z,4.80
2017-07-18T02:25:59.499Z,4.57
2017-07-18T02:28:30.521Z,3.67
2017-07-18T02:31:00.390Z,4.17
2017-07-18T02:33:31.018Z,4.23
2017-07-18T02:36:00.892Z,4.27
2017-07-18T02:38:30.788Z,4.43
2017-07-18T02:41:00.224Z,4.57
2017-07-18T02:43:31.833Z,4.53
2017-07-18T02:46:03.019Z,4.30
2017-07-18T02:48:33.728Z,4.80
2017-07-18T02:51:04.094Z,4.13
2017-07-18T02:53:33.289Z,4.23
2017-07-18T02:56:02.864Z,4.23
2017-07-18T02:58:32.220Z,4.13
2017-07-18T03:01:02.340Z,4.70
2017-07-18T03:03:33.690Z,4.30
2017-07-18T03:06:03.084Z,3.90
2017-07-18T03:08:32.494Z,4.90
2017-07-18T03:11:02.830Z,4.40
2017-07-18T03:13:35.895Z,4.53
2017-07-18T03:16:04.940Z,3.70
2017-07-18T03:18:34.195Z,4.30
2017-07-18T03:21:03.587Z,3.73
2017-07-18T03:23:32.801Z,3.93
2017-07-18T03:26:01.988Z,3.90
2017-07-18T03:28:32.704Z,4.27
2017-07-18T03:31:03.568Z,4.43
2017-07-18T03:33:34.014Z,3.60
2017-07-18T03:36:16.559Z,3.80
2017-07-18T03:38:46.946Z,3.70
2017-07-18T03:41:21.838Z,4.20
2017-07-18T03:43:54.873Z,4.60
2017-07-18T03:46:24.748Z,4.63
2017-07-18T03:48:54.300Z,3.80
2017-07-18T03:51:26.186Z,3.70
2017-07-18T03:53:58.540Z,3.87
2017-07-18T03:56:28.354Z,4.10
2017-07-18T03:58:57.934Z,4.27
2017-07-18T04:01:30.605Z,3.70
2017-07-18T04:04:00.035Z,3.43
2017-07-18T04:06:30.362Z,4.00
2017-07-18T04:09:00.430Z,4.00
2017-07-18T04:11:29.716Z,3.90
2017-07-18T04:13:58.968Z,3.53
2017-07-18T04:16:29.992Z,3.90
2017-07-18T04:18:59.059Z,3.93
2017-07-18T04:21:29.018Z,3.60
2017-07-18T04:23:58.580Z,4.10
2017-07-18T04:26:29.805Z,4.27
2017-07-18T04:28:59.433Z,4.43
2017-07-18T04:31:31.173Z,4.10
2017-07-18T04:34:00.477Z,3.80
2017-07-18T04:36:32.478Z,4.23
2017-07-18T04:39:02.757Z,3.87
2017-07-18T04:41:32.827Z,4.03
2017-07-18T04:44:02.199Z,3.73
2017-07-18T04:46:33.540Z,3.60
2017-07-18T04:49:04.663Z,3.97
2017-07-18T04:51:35.518Z,4.47
2017-07-18T04:54:06.157Z,4.90
2017-07-18T04:56:36.087Z,4.13
2017-07-18T04:59:06.440Z,4.73
2017-07-18T05:01:36.793Z,5.53
2017-07-18T05:04:06.798Z,5.80
2017-07-18T05:06:36.197Z,8.80
2017-07-18T05:09:06.199Z,12.53
2017-07-18T05:11:38.211Z,129.87
2017-07-18T05:14:07.868Z,185.90
2017-07-18T05:16:38.263Z,50.80
2017-07-18T05:19:09.319Z,28.83
2017-07-18T05:21:40.070Z,56.80
2017-07-18T05:24:13.949Z,40.43
2017-07-18T05:26:44.328Z,42.27
2017-07-18T05:29:15.855Z,14.57
2017-07-18T05:31:46.400Z,9.87
2017-07-18T05:34:17.154Z,23.27
2017-07-18T05:36:47.051Z,97.40
2017-07-18T05:39:16.378Z,10.53
2017-07-18T05:41:46.357Z,7.40
2017-07-18T05:44:16.580Z,6.17
2017-07-18T05:46:47.032Z,6.80
2017-07-18T05:49:19.970Z,6.00
2017-07-18T05:51:50.040Z,5.60
2017-07-18T05:54:20.079Z,4.93
2017-07-18T05:56:50.663Z,5.60
2017-07-18T05:59:28.660Z,5.50
2017-07-18T06:01:58.706Z,5.13
2017-07-18T06:04:31.441Z,4.70
2017-07-18T06:07:00.801Z,4.50
2017-07-18T06:09:30.934Z,4.80
2017-07-18T06:12:00.226Z,4.43
2017-07-18T06:14:29.351Z,5.40
2017-07-18T06:16:59.017Z,4.90
2017-07-18T06:19:29.769Z,4.20
2017-07-18T06:21:59.023Z,4.93
2017-07-18T06:24:30.033Z,4.90
2017-07-18T06:27:00.191Z,4.27
2017-07-18T06:29:31.360Z,4.40
2017-07-18T06:32:02.163Z,4.70
2017-07-18T06:34:32.032Z,4.47
2017-07-18T06:37:01.633Z,5.00
2017-07-18T06:39:54.587Z,4.50
2017-07-18T06:42:24.817Z,4.27
2017-07-18T06:44:56.668Z,4.40
2017-07-18T06:47:29.599Z,4.37
2017-07-18T06:49:59.266Z,5.00
2017-07-18T06:52:30.370Z,4.70
2017-07-18T06:54:59.764Z,3.90
2017-07-18T06:57:29.737Z,4.20
2017-07-18T06:59:59.361Z,3.27
2017-07-18T07:02:29.636Z,3.83
2017-07-18T07:04:59.568Z,3.80
2017-07-18T07:07:31.007Z,4.00
2017-07-18T07:10:05.122Z,3.50
2017-07-18T07:12:36.070Z,3.83
2017-07-18T07:15:08.315Z,3.60
2017-07-18T07:17:38.280Z,3.87
2017-07-18T07:20:09.153Z,3.93
2017-07-18T07:22:39.237Z,3.93
2017-07-18T07:25:10.014Z,4.00
2017-07-18T07:27:39.760Z,4.10
2017-07-18T07:30:09.595Z,3.10
2017-07-18T07:32:39.575Z,4.37
2017-07-18T07:35:09.551Z,3.50
2017-07-18T07:37:39.964Z,3.80
2017-07-18T07:40:09.777Z,3.63
2017-07-18T07:42:39.864Z,4.07
2017-07-18T07:45:09.535Z,4.37
2017-07-18T07:47:38.792Z,4.50
2017-07-18T07:50:09.637Z,4.30
2017-07-18T07:52:40.103Z,4.67
2017-07-18T07:55:09.661Z,4.00
2017-07-18T07:57:40.045Z,4.57
2017-07-18T08:00:10.427Z,3.67
2017-07-18T08:02:39.619Z,4.27
2017-07-18T08:05:09.418Z,4.30
2017-07-18T08:07:38.919Z,4.40
2017-07-18T08:10:08.229Z,4.70
2017-07-18T08:12:41.828Z,4.83
2017-07-18T08:15:11.724Z,4.40
2017-07-18T08:17:41.084Z,4.40
2017-07-18T08:20:13.843Z,3.90
2017-07-18T08:22:42.964Z,4.70
2017-07-18T08:25:15.538Z,4.23
2017-07-18T08:27:46.202Z,4.03
2017-07-18T08:30:16.903Z,5.00
2017-07-18T08:32:47.445Z,4.37
2017-07-18T08:35:18.542Z,4.60
2017-07-18T08:37:47.767Z,4.57
2017-07-18T08:40:20.568Z,4.23
2017-07-18T08:42:50.233Z,4.73
2017-07-18T08:45:19.581Z,4.53
2017-07-18T08:47:48.847Z,4.57
2017-07-18T08:50:18.650Z,4.70
2017-07-18T08:52:47.940Z,4.40
2017-07-18T08:55:17.307Z,4.90
2017-07-18T08:57:48.295Z,4.40
2017-07-18T09:00:19.668Z,5.43
2017-07-18T09:02:49.322Z,4.43
2017-07-18T09:05:19.251Z,5.00
2017-07-18T09:07:48.618Z,5.27
2017-07-18T09:10:18.431Z,4.87
2017-07-18T09:12:48.284Z,4.87
2017-07-18T09:15:18.153Z,4.67
2017-07-18T09:17:47.574Z,5.20
2017-07-18T09:20:18.279Z,5.17
2017-07-18T09:22:47.681Z,5.93
2017-07-18T09:25:17.340Z,4.60
2017-07-18T09:27:46.876Z,5.40
2017-07-18T09:30:16.315Z,4.70
2017-07-18T09:32:45.946Z,5.50
2017-07-18T09:35:15.491Z,6.00
2017-07-18T09:37:45.393Z,5.47
2017-07-18T09:40:15.743Z,6.00
2017-07-18T09:42:45.879Z,5.20
2017-07-18T09:45:15.263Z,5.90
2017-07-18T09:47:44.892Z,5.70
2017-07-18T09:50:14.652Z,4.80
2017-07-18T09:52:43.984Z,5.20
2017-07-18T09:55:18.157Z,6.10
2017-07-18T09:57:48.267Z,5.87
2017-07-18T10:00:17.781Z,5.73
2017-07-18T10:02:47.063Z,6.00
2017-07-18T10:05:17.205Z,6.33
2017-07-18T10:07:47.073Z,5.60
2017-07-18T10:10:16.475Z,5.97
2017-07-18T10:12:46.090Z,5.47
2017-07-18T10:15:17.323Z,5.50
2017-07-18T10:17:46.730Z,5.00
2017-07-18T10:20:16.473Z,5.80
2017-07-18T10:22:46.426Z,5.60
2017-07-18T10:25:15.766Z,4.97
2017-07-18T10:27:45.215Z,6.63
2017-07-18T10:30:14.503Z,5.50
2017-07-18T10:32:43.677Z,6.00
2017-07-18T10:35:15.091Z,6.80
2017-07-18T10:37:44.382Z,5.70
2017-07-18T10:40:13.890Z,5.60
2017-07-18T10:42:43.423Z,5.33
2017-07-18T10:45:13.709Z,6.73
2017-07-18T10:47:44.220Z,6.23
2017-07-18T10:50:14.413Z,5.50
2017-07-18T10:52:44.854Z,5.90
2017-07-18T10:55:15.486Z,5.20
2017-07-18T10:57:45.446Z,4.60
2017-07-18T11:00:14.851Z,6.10
2017-07-18T11:02:44.877Z,5.00
2017-07-18T11:05:16.455Z,5.17
2017-07-18T11:07:46.269Z,5.97
2017-07-18T11:10:16.339Z,5.23
2017-07-18T11:12:46.343Z,5.50
2017-07-18T11:15:17.212Z,5.80
2017-07-18T11:17:46.745Z,5.17
2017-07-18T11:20:17.009Z,5.70
2017-07-18T11:22:46.886Z,5.20
2017-07-18T11:25:17.017Z,4.80
2017-07-18T11:27:46.745Z,5.00
2017-07-18T11:30:16.948Z,5.30
2017-07-18T11:32:46.229Z,5.37
2017-07-18T11:35:15.919Z,5.40
2017-07-18T11:37:45.457Z,5.90
2017-07-18T11:40:16.038Z,5.80
2017-07-18T11:42:46.110Z,5.27
2017-07-18T11:45:17.296Z,5.17
2017-07-18T11:47:46.839Z,5.60
2017-07-18T11:50:16.686Z,6.13
2017-07-18T11:52:46.057Z,6.27
2017-07-18T11:55:16.789Z,5.20
2017-07-18T11:57:46.100Z,5.50
2017-07-18T12:00:16.419Z,6.00
2017-07-18T12:02:46.040Z,5.60
2017-07-18T12:05:16.107Z,6.10
2017-07-18T12:07:45.346Z,5.50
2017-07-18T12:10:15.507Z,5.20
2017-07-18T12:12:44.700Z,5.67
2017-07-18T12:15:15.526Z,5.47
2017-07-18T12:17:44.727Z,5.43
2017-07-18T12:20:14.240Z,5.90
2017-07-18T12:22:43.812Z,6.40
2017-07-18T12:25:14.058Z,6.63
2017-07-18T12:27:43.265Z,5.93
2017-07-18T12:30:12.706Z,5.90
2017-07-18T12:32:41.873Z,5.43
2017-07-18T12:35:12.311Z,6.37
2017-07-18T12:37:41.652Z,5.60
2017-07-18T12:40:11.522Z,5.63
2017-07-18T12:42:41.242Z,5.30
2017-07-18T12:45:11.690Z,5.40
2017-07-18T12:47:41.017Z,5.80
2017-07-18T12:50:11.990Z,6.33
2017-07-18T12:52:41.082Z,5.60
2017-07-18T12:55:11.612Z,5.67
2017-07-18T12:57:40.834Z,6.00
2017-07-18T13:00:10.658Z,5.73
2017-07-18T13:02:40.208Z,6.27
2017-07-18T13:05:11.028Z,6.87
2017-07-18T13:07:41.320Z,6.30
2017-07-18T13:10:11.302Z,6.33
2017-07-18T13:12:41.267Z,5.90
2017-07-18T13:15:11.771Z,6.80
2017-07-18T13:17:42.578Z,6.53
2017-07-18T13:20:12.378Z,6.10
2017-07-18T13:22:41.604Z,6.60
2017-07-18T13:25:17.847Z,7.30
2017-07-18T13:30:38.110Z,7.30
2017-07-18T13:33:10.191Z,6.93
2017-07-18T13:35:44.003Z,6.70
2017-07-18T13:38:14.206Z,6.40
2017-07-18T13:40:43.425Z,6.37
2017-07-18T13:43:13.013Z,6.73
2017-07-18T13:45:42.102Z,6.27
2017-07-18T13:48:11.162Z,6.87
2017-07-18T13:50:41.166Z,8.27
2017-07-18T13:53:11.553Z,6.90
2017-07-18T13:55:40.651Z,7.50
2017-07-18T13:58:10.739Z,7.10
2017-07-18T14:00:41.585Z,6.50
2017-07-18T14:03:11.834Z,5.90
2017-07-18T14:05:41.306Z,6.10
2017-07-18T14:08:11.211Z,6.30
2017-07-18T14:10:40.252Z,5.97
2017-07-18T14:13:10.902Z,6.00
2017-07-18T14:15:39.995Z,5.90
2017-07-18T14:18:09.863Z,6.70
2017-07-18T14:20:39.307Z,6.57
2017-07-18T14:23:08.570Z,7.40
2017-07-18T14:25:37.662Z,7.20
2017-07-18T14:28:07.718Z,6.80
2017-07-18T14:30:37.032Z,36.97
2017-07-18T14:33:07.605Z,91.47
2017-07-18T14:35:36.849Z,137.87
2017-07-18T14:38:06.238Z,241.77
2017-07-18T14:40:35.761Z,238.37
2017-07-18T14:43:04.788Z,191.03
2017-07-18T14:45:33.819Z,142.40
2017-07-18T14:48:04.324Z,144.27
2017-07-18T14:50:33.554Z,109.17
2017-07-18T14:53:07.354Z,94.57
2017-07-18T14:55:36.759Z,70.27
2017-07-18T14:58:06.555Z,66.10
2017-07-18T15:00:36.335Z,61.23
2017-07-18T15:03:05.830Z,171.87
2017-07-18T15:05:35.524Z,195.00
2017-07-18T15:08:05.283Z,288.33
2017-07-18T15:10:34.544Z,219.00
2017-07-18T15:13:04.218Z,200.53
2017-07-18T15:15:33.919Z,167.40
2017-07-18T15:19:27.792Z,137.07
2017-07-18T15:21:57.712Z,99.87
2017-07-18T15:24:28.508Z,61.77
2017-07-18T15:26:58.033Z,66.97
2017-07-18T15:29:28.180Z,52.63
2017-07-18T15:31:57.439Z,89.43
2017-07-18T15:34:32.047Z,200.20
2017-07-18T15:37:04.734Z,270.30
2017-07-18T15:39:33.983Z,263.20
2017-07-18T15:42:04.260Z,223.67
2017-07-18T15:44:33.880Z,166.80
2017-07-18T15:47:03.089Z,128.37
2017-07-18T15:49:32.720Z,110.20
2017-07-18T15:52:04.056Z,94.87
2017-07-18T15:54:34.423Z,89.53
2017-07-18T15:57:03.611Z,80.70
2017-07-18T15:59:33.167Z,75.77
2017-07-18T16:02:04.510Z,67.53
2017-07-18T16:04:33.746Z,65.83
2017-07-18T16:07:03.316Z,62.17
2017-07-18T16:09:32.548Z,999.90
2017-07-18T16:12:01.980Z,50.57
2017-07-18T16:14:31.522Z,51.57
2017-07-18T16:17:00.831Z,47.67
2017-07-18T16:19:32.013Z,47.17
2017-07-18T16:22:03.359Z,45.77
2017-07-18T16:24:32.581Z,39.30
2017-07-18T16:27:01.817Z,37.80
2017-07-18T16:29:31.878Z,34.13
2017-07-18T16:32:03.863Z,33.03
2017-07-18T16:34:33.151Z,31.90
2017-07-18T16:37:04.443Z,32.27
2017-07-18T16:39:33.642Z,27.23
2017-07-18T16:42:02.995Z,26.03
2017-07-18T16:44:33.130Z,23.70
2017-07-18T16:47:02.892Z,22.43
2017-07-18T16:49:32.374Z,22.23
2017-07-18T16:52:02.005Z,21.47
2017-07-18T16:54:31.418Z,19.40
2017-07-18T16:57:00.634Z,20.73
2017-07-18T16:59:30.411Z,18.80
2017-07-18T17:01:59.613Z,18.80
2017-07-18T17:04:29.192Z,17.80
2017-07-18T17:06:59.291Z,16.93
2017-07-18T17:09:30.039Z,16.60
2017-07-18T17:11:59.142Z,15.20
2017-07-18T17:14:29.278Z,14.60
2017-07-18T17:16:58.589Z,14.80
2017-07-18T17:19:28.809Z,13.80
2017-07-18T17:21:58.356Z,14.17
2017-07-18T17:24:28.081Z,12.83
2017-07-18T17:26:57.089Z,13.23
2017-07-18T17:29:26.939Z,13.00
2017-07-18T17:31:55.995Z,12.50
2017-07-18T17:34:26.631Z,12.37
2017-07-18T17:37:02.274Z,11.20
2017-07-18T17:39:45.994Z,9.93
2017-07-18T17:42:26.473Z,10.27
2017-07-18T17:44:55.628Z,9.87
2017-07-18T17:47:25.633Z,9.93
2017-07-18T17:49:55.385Z,9.70
2017-07-18T17:52:25.348Z,9.80
2017-07-18T17:54:56.042Z,9.53
2017-07-18T17:57:26.361Z,9.43
2017-07-18T17:59:55.696Z,8.73
2017-07-18T18:02:27.147Z,8.70
2017-07-18T18:04:56.446Z,8.43
2017-07-18T18:07:26.482Z,13.33
2017-07-18T18:09:56.085Z,596.33
2017-07-18T18:12:26.641Z,205.20
2017-07-18T18:14:55.918Z,277.73
2017-07-18T18:17:25.859Z,278.83
2017-07-18T18:19:55.107Z,268.37
2017-07-18T18:22:24.454Z,237.10
2017-07-18T18:24:53.968Z,222.00
2017-07-18T18:27:23.864Z,435.30
2017-07-18T18:29:53.553Z,532.20
2017-07-18T18:32:25.018Z,358.30
2017-07-18T18:34:54.273Z,381.40
2017-07-18T18:37:24.155Z,409.77
2017-07-18T18:39:54.401Z,647.07
2017-07-18T18:42:23.928Z,350.40
2017-07-18T18:44:53.374Z,305.67
2017-07-18T18:47:23.571Z,288.20
2017-07-18T18:49:52.767Z,257.30
2017-07-18T18:52:25.039Z,220.73
2017-07-18T18:54:54.627Z,193.47
2017-07-18T18:57:25.845Z,448.27
2017-07-18T18:59:55.033Z,521.77
2017-07-18T19:02:25.816Z,284.43
2017-07-18T19:04:55.242Z,190.93
2017-07-18T19:07:25.900Z,136.17
2017-07-18T19:09:57.050Z,137.37
2017-07-18T19:12:27.747Z,999.90
2017-07-18T19:14:56.886Z,571.50
2017-07-18T19:17:28.772Z,166.07
2017-07-18T19:19:58.840Z,148.63
2017-07-18T19:22:29.390Z,121.33
2017-07-18T19:24:59.102Z,111.27
2017-07-18T19:27:30.411Z,132.63
2017-07-18T19:29:59.453Z,228.47
2017-07-18T19:32:30.029Z,378.00
2017-07-18T19:34:59.222Z,410.40
2017-07-18T19:37:28.413Z,379.10
2017-07-18T19:39:59.787Z,307.57
2017-07-18T19:42:31.109Z,254.30
2017-07-18T19:45:00.504Z,262.53
2017-07-18T19:47:32.212Z,227.30
2017-07-18T19:50:03.512Z,260.77
2017-07-18T19:52:32.892Z,221.33
2017-07-18T19:55:03.043Z,189.80
2017-07-18T19:57:32.482Z,178.03
2017-07-18T20:00:02.322Z,199.00
2017-07-18T20:02:32.381Z,151.70
2017-07-18T20:05:02.140Z,152.63
2017-07-18T20:07:31.450Z,145.97
2017-07-18T20:10:02.163Z,167.97
2017-07-18T20:12:31.906Z,138.47
2017-07-18T20:15:03.096Z,110.00
2017-07-18T20:17:33.325Z,120.33
2017-07-18T20:20:02.649Z,116.97
2017-07-18T20:22:32.123Z,113.43
2017-07-18T20:25:02.082Z,122.40
2017-07-18T20:27:32.118Z,90.07
2017-07-18T20:30:01.454Z,999.90
2017-07-18T20:32:32.733Z,924.20
2017-07-18T20:35:05.996Z,530.30
2017-07-18T20:37:35.322Z,393.17
2017-07-18T20:40:07.079Z,310.03
2017-07-18T20:42:36.284Z,249.97
2017-07-18T20:45:05.996Z,233.93
2017-07-18T20:47:35.942Z,181.63
2017-07-18T20:50:06.504Z,177.03
2017-07-18T20:52:37.071Z,194.07
2017-07-18T20:57:41.889Z,137.40
2017-07-18T21:00:12.172Z,131.47
2017-07-18T21:02:48.941Z,133.97
2017-07-18T21:05:23.589Z,224.80
2017-07-18T21:07:55.246Z,162.07
2017-07-18T21:10:27.026Z,132.27
2017-07-18T21:12:57.125Z,108.90
2017-07-18T21:15:28.305Z,116.20
2017-07-18T21:18:00.494Z,82.97
2017-07-18T21:20:31.114Z,59.90
2017-07-18T21:23:02.378Z,39.90
2017-07-18T21:25:32.792Z,34.93
2017-07-18T21:28:05.470Z,32.90
2017-07-18T21:30:37.248Z,30.27
2017-07-18T21:33:09.182Z,20.50
2017-07-18T21:35:38.587Z,18.73
2017-07-18T21:38:10.968Z,21.00
2017-07-18T21:40:40.234Z,18.43
2017-07-18T21:43:10.404Z,16.27
2017-07-18T21:45:39.881Z,18.80
2017-07-18T21:48:10.187Z,17.13
2017-07-18T21:50:39.597Z,14.60
2017-07-18T21:53:10.818Z,782.90
2017-07-18T21:55:40.913Z,13.63
2017-07-18T21:58:13.865Z,627.13
2017-07-18T22:00:43.721Z,13.83
2017-07-18T22:03:13.198Z,13.70
2017-07-18T22:05:42.464Z,12.10
2017-07-18T22:08:12.098Z,13.33
2017-07-18T22:10:41.435Z,15.10
2017-07-18T22:13:13.604Z,129.93
2017-07-18T22:15:43.034Z,14.07
2017-07-18T22:18:13.362Z,11.50
2017-07-18T22:20:42.665Z,13.17
2017-07-18T22:23:13.368Z,12.10
2017-07-18T22:25:43.356Z,11.47
2017-07-18T22:28:14.005Z,11.80
2017-07-18T22:30:43.563Z,10.93
2017-07-18T22:33:13.718Z,739.07
2017-07-18T22:35:43.137Z,182.97
2017-07-18T22:38:14.479Z,232.80
2017-07-18T22:40:43.824Z,119.23
2017-07-18T22:43:14.332Z,73.40
2017-07-18T22:45:44.100Z,54.33
2017-07-18T22:48:17.968Z,51.03
2017-07-18T22:50:47.684Z,34.73
2017-07-18T22:53:18.777Z,30.97
2017-07-18T22:55:48.717Z,20.73
2017-07-18T22:58:19.842Z,19.37
2017-07-18T23:00:50.262Z,19.40
2017-07-18T23:03:20.525Z,15.80
2017-07-18T23:05:49.820Z,22.40
2017-07-18T23:08:20.526Z,15.80
2017-07-18T23:10:50.124Z,14.00
2017-07-18T23:13:19.719Z,15.90
2017-07-18T23:15:49.285Z,13.30
2017-07-18T23:18:21.578Z,14.27
2017-07-18T23:20:51.713Z,12.30
2017-07-18T23:23:33.346Z,11.70
2017-07-18T23:26:05.900Z,12.30
2017-07-18T23:28:35.580Z,12.47
2017-07-18T23:31:04.859Z,11.57
2017-07-18T23:33:34.591Z,11.13
2017-07-18T23:36:05.323Z,11.40
2017-07-18T23:38:34.512Z,11.63
2017-07-18T23:41:04.118Z,11.33
2017-07-18T23:43:33.440Z,11.80
2017-07-18T23:46:04.000Z,10.47
2017-07-18T23:48:33.577Z,10.53
2017-07-18T23:51:05.148Z,10.03
2017-07-18T23:53:34.557Z,11.20
2017-07-18T23:56:04.630Z,10.80
2017-07-18T23:58:34.391Z,9.77
